Time;durP1;ratioP1;P1;durP2;ratioP2;P2;SDS_P1;SDS_P2;PMS_P1;PMS_P2;Temp;Humidity;BMP_temperature;BMP_pressure;BME280_temperature;BME280_humidity;BME280_pressure;Samples;Min_cycle;Max_cycle;Signal;HPM_P1;HPM_P2
2021/12/25 02:30:53;;;;;;;109.93;51.30;;;;;;;4.83;100.00;99959.59;6244645;23;19922;-84
2021/12/25 03:02:31;;;;;;;103.37;46.53;;;;;;;4.60;100.00;99938.06;6230355;22;20238;-80
2021/12/25 03:19:55;;;;;;;133.68;62.13;;;;;;;4.98;100.00;99917.00;6208418;23;20271;-88
2021/12/25 03:23:28;;;;;;;128.02;60.17;;;;;;;5.06;100.00;99913.69;6214721;23;20021;-81
2021/12/25 03:26:54;;;;;;;135.52;61.45;;;;;;;5.02;100.00;99922.81;6147440;23;20012;-83
2021/12/25 03:30:20;;;;;;;131.05;59.28;;;;;;;5.08;100.00;99916.97;6214499;23;20051;-82
2021/12/25 03:33:47;;;;;;;122.78;57.63;;;;;;;5.31;100.00;99926.19;6168447;23;20021;-83
2021/12/25 03:39:58;;;;;;;129.10;60.25;;;;;;;5.35;100.00;99943.31;6242848;23;20027;-84
2021/12/25 05:46:05;;;;;;;159.10;73.43;;;;;;;4.97;100.00;99919.78;6200236;22;20027;-86
2021/12/25 07:03:03;;;;;;;159.98;74.78;;;;;;;4.95;100.00;99906.78;6198671;23;20024;-86
2021/12/25 07:05:47;;;;;;;161.45;78.35;;;;;;;4.93;100.00;99908.75;6197046;23;20056;-87
2021/12/25 07:08:31;;;;;;;162.82;75.60;;;;;;;4.95;100.00;99895.47;6197160;23;20035;-88
2021/12/25 07:11:14;;;;;;;166.13;78.20;;;;;;;4.91;100.00;99896.69;6172250;23;20009;-84
2021/12/25 07:14:01;;;;;;;164.05;75.97;;;;;;;4.86;100.00;99893.69;6171657;23;20044;-89
2021/12/25 07:16:50;;;;;;;159.35;74.70;;;;;;;4.87;100.00;99900.59;6185400;23;20008;-84
2021/12/25 07:19:24;;;;;;;153.27;73.72;;;;;;;4.98;100.00;99895.16;6192940;23;20021;-90
2021/12/25 07:22:28;;;;;;;157.13;74.40;;;;;;;4.90;100.00;99901.16;6159309;23;20013;-88
2021/12/25 07:25:03;;;;;;;163.43;76.95;;;;;;;4.89;100.00;99898.66;6192900;23;20005;-86
2021/12/25 07:27:35;;;;;;;154.63;73.38;;;;;;;4.90;100.00;99901.16;6191941;23;20051;-87
2021/12/25 07:30:02;;;;;;;160.20;76.65;;;;;;;4.90;100.00;99908.19;6193796;23;20009;-86
2021/12/25 07:32:28;;;;;;;161.23;78.28;;;;;;;4.87;100.00;99900.59;6193046;23;20005;-86
2021/12/25 07:34:54;;;;;;;162.85;75.43;;;;;;;4.86;100.00;99904.19;6193438;23;20028;-87
2021/12/25 07:37:19;;;;;;;153.35;73.75;;;;;;;5.00;100.00;99906.38;6192820;23;20009;-89
2021/12/25 07:39:45;;;;;;;159.95;74.60;;;;;;;4.96;100.00;99907.63;6192041;23;20012;-85
2021/12/25 07:42:11;;;;;;;154.85;73.82;;;;;;;5.08;100.00;99914.34;6167470;23;20047;-87
2021/12/25 07:45:03;;;;;;;158.70;74.72;;;;;;;4.97;100.00;99909.28;6192569;23;20036;-86
2021/12/25 07:47:32;;;;;;;155.18;75.47;;;;;;;5.02;100.00;99913.13;6194321;23;20326;-87
2021/12/25 07:50:05;;;;;;;149.45;70.55;;;;;;;5.00;100.00;99919.50;6168492;23;20013;-90
2021/12/25 07:52:31;;;;;;;139.00;70.38;;;;;;;5.05;100.00;99918.09;6192403;23;20056;-91
2021/12/25 07:55:01;;;;;;;133.98;67.03;;;;;;;5.05;100.00;99919.91;6192141;23;20099;-89
2021/12/25 07:57:33;;;;;;;130.60;64.10;;;;;;;5.06;100.00;99913.69;6189866;23;20017;-88
2021/12/25 07:59:59;;;;;;;135.82;66.75;;;;;;;5.10;100.00;99910.63;6188492;23;20081;-88
2021/12/25 08:02:25;;;;;;;132.68;64.65;;;;;;;5.17;100.00;99906.44;6178845;23;20025;-85
2021/12/25 08:04:50;;;;;;;134.50;66.72;;;;;;;5.12;100.00;99913.13;6184364;23;20096;-86
2021/12/25 08:07:16;;;;;;;136.52;66.68;;;;;;;5.24;100.00;99917.22;6188190;23;20005;-89
2021/12/25 08:09:45;;;;;;;134.27;68.55;;;;;;;5.25;100.00;99913.63;6190511;23;20337;-89
2021/12/25 08:12:13;;;;;;;137.50;68.47;;;;;;;5.19;100.00;99919.47;6189120;23;20040;-87
2021/12/25 08:14:39;;;;;;;135.10;66.28;;;;;;;5.23;100.00;99915.59;6183872;23;20021;-88
2021/12/25 08:17:05;;;;;;;136.40;70.00;;;;;;;5.21;100.00;99913.09;6193829;23;20024;-89
2021/12/25 08:19:54;;;;;;;153.73;68.47;;;;;;;5.12;100.00;99910.50;6184127;23;20392;-88
2021/12/25 08:22:38;;;;;;;145.65;68.07;;;;;;;5.22;100.00;99914.75;6197253;23;20032;-90
2021/12/25 08:25:23;;;;;;;142.05;68.10;;;;;;;5.17;100.00;99922.22;6195510;23;20028;-89
2021/12/25 08:28:09;;;;;;;142.20;69.53;;;;;;;4.99;100.00;99917.84;6191663;23;20075;-89
2021/12/25 08:30:40;;;;;;;144.60;70.35;;;;;;;5.01;100.00;99915.91;6193915;23;20047;-91
2021/12/25 08:33:26;;;;;;;156.50;72.40;;;;;;;5.03;100.00;99919.22;6191015;23;20021;-86
2021/12/25 08:36:18;;;;;;;157.95;76.63;;;;;;;4.96;100.00;99923.38;6184745;23;20590;-87
2021/12/25 08:38:44;;;;;;;158.68;76.28;;;;;;;4.93;100.00;99910.53;6188943;23;20044;-89
2021/12/25 08:41:13;;;;;;;149.45;74.65;;;;;;;4.83;100.00;99913.19;6187475;23;20462;-88
2021/12/25 08:43:46;;;;;;;154.77;74.55;;;;;;;4.84;100.00;99920.06;6196330;23;20040;-86
2021/12/25 08:46:18;;;;;;;156.35;76.28;;;;;;;4.78;100.00;99925.03;6166999;23;20040;-89
2021/12/25 08:48:45;;;;;;;117.80;54.88;;;;;;;4.80;100.00;99923.13;6193819;23;20005;-90
2021/12/25 08:51:13;;;;;;;153.20;72.75;;;;;;;4.73;100.00;99920.22;6192377;23;20445;-88
2021/12/25 08:53:41;;;;;;;152.57;72.07;;;;;;;4.64;100.00;99919.25;6193691;23;20008;-91
2021/12/25 08:56:07;;;;;;;167.70;77.25;;;;;;;4.67;100.00;99918.19;6194496;23;20093;-90
2021/12/25 08:58:35;;;;;;;154.75;73.72;;;;;;;4.64;100.00;99914.00;6200781;23;20009;-89
2021/12/25 09:01:06;;;;;;;159.13;71.30;;;;;;;4.69;100.00;99922.31;6194883;23;20081;-86
2021/12/25 09:03:32;;;;;;;151.60;72.05;;;;;;;4.65;100.00;99922.72;6190400;23;20119;-85
2021/12/25 09:06:03;;;;;;;151.75;71.22;;;;;;;4.59;100.00;99926.72;6194785;23;20009;-87
2021/12/25 09:08:30;;;;;;;157.65;72.63;;;;;;;4.83;100.00;99922.84;6195746;23;20012;-89
2021/12/25 09:10:57;;;;;;;151.75;72.28;;;;;;;4.74;100.00;99913.19;6187923;23;20517;-83
2021/12/25 09:13:22;;;;;;;146.88;71.93;;;;;;;4.77;100.00;99915.53;6189428;23;20005;-86
2021/12/25 09:15:48;;;;;;;159.07;74.53;;;;;;;4.75;100.00;99915.66;6162730;23;20012;-85
2021/12/25 09:18:13;;;;;;;160.45;73.88;;;;;;;4.93;100.00;99918.41;6162855;23;20080;-87
2021/12/25 09:20:40;;;;;;;152.15;75.43;;;;;;;4.97;100.00;99925.03;6165804;23;20028;-87
2021/12/25 09:23:05;;;;;;;160.30;76.38;;;;;;;4.98;100.00;99922.25;6188801;23;20016;-85
2021/12/25 09:25:32;;;;;;;150.80;73.82;;;;;;;5.00;100.00;99930.00;6188085;23;20013;-90
2021/12/25 09:27:59;;;;;;;164.55;77.80;;;;;;;5.05;100.00;99927.78;6186760;23;20019;-86
2021/12/25 09:30:25;;;;;;;160.27;77.57;;;;;;;4.93;100.00;99919.25;6184558;23;20021;-88
2021/12/25 09:32:51;;;;;;;156.48;76.82;;;;;;;4.90;100.00;99914.28;6187398;23;20081;-85
2021/12/25 09:35:17;;;;;;;158.80;78.03;;;;;;;4.86;100.00;99917.31;6185353;23;20020;-87
2021/12/25 09:37:44;;;;;;;160.18;76.70;;;;;;;4.90;100.00;99909.03;6162200;23;20013;-89
2021/12/25 09:40:16;;;;;;;171.02;79.30;;;;;;;4.88;100.00;99904.88;6139624;23;20016;-88
2021/12/25 09:42:44;;;;;;;163.25;79.35;;;;;;;4.90;100.00;99908.19;6191180;23;20044;-87
2021/12/25 09:45:11;;;;;;;156.30;74.25;;;;;;;5.01;100.00;99906.22;6161104;23;20100;-85
2021/12/25 09:47:36;;;;;;;147.82;70.50;;;;;;;5.07;100.00;99905.66;6189168;23;20430;-85
2021/12/25 09:50:03;;;;;;;141.15;68.40;;;;;;;5.11;100.00;99900.94;6192049;23;20013;-85
2021/12/25 09:52:29;;;;;;;137.13;69.30;;;;;;;5.09;100.00;99898.47;6193069;23;20009;-85
2021/12/25 09:54:55;;;;;;;143.13;69.80;;;;;;;5.04;100.00;99898.06;6161617;23;20009;-84
2021/12/25 09:57:21;;;;;;;143.60;70.57;;;;;;;5.09;100.00;99895.00;6188489;23;20091;-85
2021/12/25 09:59:46;;;;;;;138.85;68.68;;;;;;;5.01;100.00;99898.34;6187934;23;20009;-83
2021/12/25 10:02:15;;;;;;;150.23;71.97;;;;;;;4.98;100.00;99896.00;6190802;23;20009;-86
2021/12/25 10:04:46;;;;;;;143.00;68.55;;;;;;;4.97;100.00;99904.03;6162456;23;20009;-85
2021/12/25 10:07:12;;;;;;;139.48;70.50;;;;;;;4.97;100.00;99893.53;6188588;23;20013;-87
2021/12/25 10:09:38;;;;;;;145.15;69.72;;;;;;;5.16;100.00;99891.69;6189779;23;20032;-86
2021/12/25 10:12:10;;;;;;;134.38;69.18;;;;;;;5.04;100.00;99891.97;6193300;23;20394;-84
2021/12/25 10:14:37;;;;;;;143.73;68.33;;;;;;;5.10;100.00;99883.56;6191415;23;20040;-85
2021/12/25 10:17:15;;;;;;;136.82;67.53;;;;;;;5.18;100.00;99881.03;6194290;23;20236;-85
2021/12/25 10:19:41;;;;;;;141.00;67.03;;;;;;;5.33;100.00;99879.59;6186778;23;20017;-83
2021/12/25 10:22:11;;;;;;;133.25;65.85;;;;;;;5.40;100.00;99874.59;6212925;23;20020;-87
2021/12/25 10:24:49;;;;;;;141.10;69.40;;;;;;;5.52;100.00;99874.25;6187175;23;20003;-84
2021/12/25 10:27:20;;;;;;;137.82;68.30;;;;;;;5.40;100.00;99870.13;6206448;23;20024;-88
2021/12/25 10:29:47;;;;;;;129.43;66.28;;;;;;;5.33;100.00;99861.22;6189048;23;20017;-88
2021/12/25 10:32:18;;;;;;;135.02;65.82;;;;;;;5.48;100.00;99872.06;6161992;23;20033;-86
2021/12/25 10:34:44;;;;;;;136.30;64.45;;;;;;;5.46;100.00;99882.72;6188588;23;20096;-85
2021/12/25 10:37:16;;;;;;;138.00;65.85;;;;;;;5.49;100.00;99873.72;6189159;23;20028;-85
2021/12/25 10:39:42;;;;;;;144.32;68.53;;;;;;;5.43;100.00;99875.13;6163162;23;20012;-87
2021/12/25 10:42:18;;;;;;;140.20;68.80;;;;;;;5.39;100.00;99872.94;6189611;23;20092;-83
2021/12/25 10:44:46;;;;;;;142.20;70.40;;;;;;;5.50;100.00;99865.66;6165169;23;20318;-85
2021/12/25 10:47:18;;;;;;;151.77;75.18;;;;;;;5.36;100.00;99862.72;6188960;23;20313;-85
2021/12/25 10:49:58;;;;;;;143.48;72.40;;;;;;;5.53;100.00;99852.25;6189063;23;20066;-85
2021/12/25 10:52:33;;;;;;;144.10;70.18;;;;;;;5.76;100.00;99849.22;6188510;23;20020;-83
2021/12/25 10:55:21;;;;;;;137.52;70.28;;;;;;;5.75;100.00;99840.50;6189376;23;20348;-85
2021/12/25 10:57:53;;;;;;;152.05;75.47;;;;;;;5.79;100.00;99846.28;6189594;23;20009;-88
2021/12/25 11:00:22;;;;;;;;;;;;;;;5.67;100.00;99846.50;6165255;23;20020;-85
2021/12/25 11:02:57;;;;;;;144.07;70.50;;;;;;;5.56;100.00;99848.50;6185516;23;19950;-86
2021/12/25 11:05:44;;;;;;;142.20;70.30;;;;;;;5.80;100.00;99840.06;6191721;23;20544;-84
2021/12/25 11:08:14;;;;;;;143.65;71.93;;;;;;;5.77;100.00;99843.00;6190234;23;20008;-84
2021/12/25 11:10:58;;;;;;;138.18;70.68;;;;;;;5.69;100.00;99841.94;6191274;23;20013;-85
2021/12/25 11:13:38;;;;;;;140.30;70.88;;;;;;;5.51;100.00;99841.06;6191340;23;20017;-83
2021/12/25 11:16:15;;;;;;;137.15;68.93;;;;;;;5.58;100.00;99834.25;6190273;23;20340;-87
2021/12/25 11:19:03;;;;;;;136.45;68.05;;;;;;;5.50;100.00;99830.69;6190847;23;20042;-86
2021/12/25 11:21:55;;;;;;;140.80;70.65;;;;;;;5.45;100.00;99830.31;6190407;23;20385;-86
2021/12/25 11:24:27;;;;;;;136.68;67.78;;;;;;;5.37;100.00;99823.13;6190527;23;20021;-84
2021/12/25 11:26:58;;;;;;;129.35;63.67;;;;;;;5.57;100.00;99808.91;6190163;23;20091;-85
2021/12/25 11:29:27;;;;;;;136.77;67.45;;;;;;;5.48;100.00;99808.97;6193458;23;20524;-87
2021/12/25 11:31:56;;;;;;;131.93;66.05;;;;;;;5.32;100.00;99809.63;6191360;23;20009;-86
2021/12/25 11:34:23;;;;;;;136.63;68.07;;;;;;;5.30;100.00;99800.25;6193245;23;20017;-85
2021/12/25 11:36:51;;;;;;;133.00;65.55;;;;;;;5.29;100.00;99804.66;6193022;23;20009;-87
2021/12/25 11:39:20;;;;;;;137.75;66.97;;;;;;;5.22;100.00;99806.22;6190315;23;20009;-84
2021/12/25 11:41:47;;;;;;;145.48;69.88;;;;;;;5.24;100.00;99801.63;6190672;23;20015;-85
2021/12/25 11:44:36;;;;;;;127.93;64.88;;;;;;;5.30;100.00;99790.56;6189587;23;20009;-85
2021/12/25 11:47:03;;;;;;;144.52;68.05;;;;;;;5.51;100.00;99792.91;6189550;23;20104;-89
2021/12/25 11:49:29;;;;;;;144.05;68.88;;;;;;;5.49;100.00;99787.81;6194807;23;20020;-85
2021/12/25 11:52:11;;;;;;;146.30;68.10;;;;;;;5.43;100.00;99784.97;6201652;23;20012;-84
2021/12/25 11:55:13;;;;;;;150.85;73.88;;;;;;;5.35;100.00;99788.31;6170844;23;20097;-87
2021/12/25 11:58:37;;;;;;;157.80;76.25;;;;;;;5.38;100.00;99779.31;6192878;23;20468;-88
2021/12/25 12:00:41;;;;;;;156.38;73.40;;;;;;;5.41;100.00;99773.75;6174442;23;20392;-86
2021/12/25 12:03:35;;;;;;;149.23;74.85;;;;;;;5.38;100.00;99774.88;6189266;23;20009;-86
2021/12/25 12:06:04;;;;;;;150.73;72.65;;;;;;;5.48;100.00;99773.03;6191728;23;20032;-85
2021/12/25 12:08:53;;;;;;;158.75;77.25;;;;;;;5.47;100.00;99755.59;6192428;23;20017;-84
2021/12/25 12:11:40;;;;;;;152.50;75.03;;;;;;;5.43;100.00;99758.69;6192669;23;20347;-87
2021/12/25 12:14:20;;;;;;;151.88;75.82;;;;;;;5.58;100.00;99750.13;6192725;23;20028;-87
2021/12/25 12:16:56;;;;;;;149.52;73.65;;;;;;;5.57;100.00;99750.25;6193563;23;20093;-87
2021/12/25 12:19:46;;;;;;;144.27;72.57;;;;;;;5.76;100.00;99749.31;6191497;23;20641;-85
2021/12/25 12:22:26;;;;;;;142.93;73.00;;;;;;;5.81;100.00;99742.63;6197621;23;20009;-86
2021/12/25 12:27:36;;;;;;;141.40;70.18;;;;;;;5.80;100.00;99745.41;6189356;23;20456;-86
2021/12/25 12:30:08;;;;;;;141.73;69.90;;;;;;;5.64;100.00;99746.06;6190123;23;20021;-87
2021/12/25 12:32:35;;;;;;;144.32;71.25;;;;;;;5.59;100.00;99743.91;6187652;23;20012;-82
2021/12/25 12:35:02;;;;;;;137.10;70.65;;;;;;;5.53;100.00;99741.88;6189314;23;20043;-85
2021/12/25 12:37:32;;;;;;;148.43;70.43;;;;;;;5.53;100.00;99739.25;6189365;23;20346;-90
2021/12/25 12:40:03;;;;;;;148.25;74.32;;;;;;;5.49;100.00;99732.63;6189912;23;20337;-87
2021/12/25 12:42:42;;;;;;;150.05;73.75;;;;;;;5.45;100.00;99731.28;6189985;23;20024;-85
2021/12/25 12:45:11;;;;;;;154.73;78.50;;;;;;;5.42;100.00;99736.84;6192201;23;20032;-87
2021/12/25 12:47:37;;;;;;;149.88;74.03;;;;;;;5.50;100.00;99728.22;6189173;23;20009;-85
2021/12/25 12:50:05;;;;;;;157.68;76.90;;;;;;;5.47;100.00;99729.31;6190879;23;20549;-85
2021/12/25 12:52:40;;;;;;;154.65;77.38;;;;;;;5.35;100.00;99730.50;6188407;23;20009;-83
2021/12/25 12:55:30;;;;;;;149.98;75.38;;;;;;;5.32;100.00;99725.56;6189733;23;20016;-85
2021/12/25 12:58:15;;;;;;;145.27;73.57;;;;;;;5.44;100.00;99715.63;6180433;23;20045;-86
2021/12/25 13:00:48;;;;;;;152.10;71.50;;;;;;;5.43;100.00;99717.47;6192803;23;20013;-85
2021/12/25 13:03:17;;;;;;;144.50;70.97;;;;;;;5.46;100.00;99711.09;6192830;23;20092;-87
2021/12/25 13:05:53;;;;;;;151.90;73.57;;;;;;;5.60;100.00;99714.00;6192055;23;20016;-87
2021/12/25 13:08:25;;;;;;;155.93;77.45;;;;;;;5.39;100.00;99716.09;6191968;23;20332;-87
2021/12/25 13:10:51;;;;;;;157.45;76.75;;;;;;;5.43;100.00;99706.97;6165695;23;20325;-85
2021/12/25 13:13:22;;;;;;;153.63;76.30;;;;;;;5.35;100.00;99714.75;6190612;23;20428;-86
2021/12/25 13:16:10;;;;;;;158.60;78.63;;;;;;;5.41;100.00;99703.63;6190799;23;20333;-88
2021/12/25 13:18:39;;;;;;;150.40;76.28;;;;;;;5.65;100.00;99701.25;6191367;23;20032;-86
2021/12/25 13:21:08;;;;;;;149.68;76.30;;;;;;;5.58;100.00;99702.81;6189805;23;20511;-86
2021/12/25 13:23:47;;;;;;;149.38;75.68;;;;;;;5.56;100.00;99702.16;6190927;23;20071;-88
2021/12/25 13:26:16;;;;;;;160.32;79.72;;;;;;;5.39;100.00;99689.00;6191592;23;20016;-85
2021/12/25 13:28:46;;;;;;;157.48;75.28;;;;;;;5.51;100.00;99688.63;6191406;23;20009;-85
2021/12/25 13:31:20;;;;;;;154.75;76.32;;;;;;;5.40;100.00;99686.22;6190396;23;20063;-86
2021/12/25 13:33:47;;;;;;;153.18;76.45;;;;;;;5.33;100.00;99674.66;6191021;23;20087;-86
2021/12/25 13:36:22;;;;;;;155.63;77.38;;;;;;;5.43;100.00;99680.69;6190823;23;20436;-87
2021/12/25 13:39:08;;;;;;;160.52;76.45;;;;;;;5.52;100.00;99669.25;6189160;23;20013;-87
2021/12/25 13:41:50;;;;;;;153.70;77.57;;;;;;;5.45;100.00;99676.09;6194255;23;20020;-84
2021/12/25 13:44:25;;;;;;;155.02;78.22;;;;;;;5.34;100.00;99672.84;6199476;23;20184;-87
2021/12/25 13:47:03;;;;;;;162.10;79.35;;;;;;;5.35;100.00;99677.97;6198815;23;20326;-89
2021/12/25 13:49:54;;;;;;;168.30;79.93;;;;;;;5.31;100.00;99676.59;6198617;23;20088;-86
2021/12/25 13:52:34;;;;;;;159.25;77.15;;;;;;;5.29;100.00;99670.69;6174594;23;20013;-86
2021/12/25 13:55:06;;;;;;;180.48;85.25;;;;;;;5.18;100.00;99668.25;6176488;23;20045;-88
2021/12/25 13:57:37;;;;;;;183.77;86.03;;;;;;;5.11;100.00;99677.69;6195863;23;20067;-87
2021/12/25 14:00:17;;;;;;;171.35;82.05;;;;;;;5.31;100.00;99666.09;6188480;23;20013;-86
2021/12/25 14:02:55;;;;;;;173.85;83.85;;;;;;;5.63;100.00;99670.84;6197145;23;20041;-86
2021/12/25 14:05:24;;;;;;;172.68;83.63;;;;;;;5.75;100.00;99674.88;6205164;23;20013;-87
2021/12/25 14:07:50;;;;;;;169.82;81.07;;;;;;;5.61;100.00;99678.03;6204295;23;20005;-85
2021/12/25 14:10:23;;;;;;;171.15;82.05;;;;;;;5.35;100.00;99682.38;6207186;23;20013;-87
2021/12/25 14:12:52;;;;;;;169.38;82.68;;;;;;;5.43;100.00;99683.31;6209426;23;20017;-87
2021/12/25 14:15:21;;;;;;;168.88;80.93;;;;;;;5.32;100.00;99688.78;6211805;23;20028;-86
2021/12/25 14:17:47;;;;;;;156.70;79.32;;;;;;;5.32;100.00;99687.94;6211559;23;20016;-87
2021/12/25 14:20:20;;;;;;;162.50;79.90;;;;;;;5.24;100.00;99690.50;6209937;23;20020;-88
2021/12/25 14:22:51;;;;;;;173.07;83.53;;;;;;;5.21;100.00;99687.19;6210869;23;19996;-87
2021/12/25 14:25:20;;;;;;;169.43;79.47;;;;;;;5.53;100.00;99691.94;6211004;23;20032;-85
2021/12/25 14:28:00;;;;;;;163.05;80.50;;;;;;;5.41;100.00;99687.88;6213349;23;20005;-86
2021/12/25 14:30:26;;;;;;;169.60;82.38;;;;;;;5.30;100.00;99680.22;6211215;23;20092;-85
2021/12/25 14:32:51;;;;;;;162.10;79.40;;;;;;;5.25;100.00;99687.72;6206827;23;20001;-87
2021/12/25 14:35:20;;;;;;;165.18;79.45;;;;;;;5.21;100.00;99681.09;6208495;23;20013;-88
2021/12/25 14:37:47;;;;;;;167.57;80.57;;;;;;;5.22;100.00;99673.09;6213995;23;20073;-85
2021/12/25 14:40:19;;;;;;;171.07;82.45;;;;;;;5.12;100.00;99682.81;6212992;23;19991;-88
2021/12/25 14:42:49;;;;;;;162.73;77.53;;;;;;;5.30;100.00;99688.09;6165122;23;20016;-87
2021/12/25 14:45:17;;;;;;;162.15;79.13;;;;;;;5.20;100.00;99689.97;6214985;23;20031;-85
2021/12/25 14:47:52;;;;;;;161.98;79.78;;;;;;;5.19;100.00;99683.88;6189433;23;20056;-86
2021/12/25 14:50:38;;;;;;;167.00;81.32;;;;;;;5.13;100.00;99688.91;6215109;23;19997;-88
2021/12/25 14:53:09;;;;;;;169.60;80.32;;;;;;;5.20;100.00;99695.22;6214546;23;20052;-88
2021/12/25 14:55:48;;;;;;;165.15;79.45;;;;;;;5.15;100.00;99692.19;6214313;23;20017;-88
2021/12/25 14:58:24;;;;;;;169.02;79.97;;;;;;;5.20;100.00;99690.78;6214045;23;20005;-86
2021/12/25 15:01:02;;;;;;;170.18;81.30;;;;;;;5.31;100.00;99683.66;6214432;23;20020;-86
2021/12/25 15:03:28;;;;;;;161.95;79.70;;;;;;;5.30;100.00;99679.41;6213970;23;20017;-87
2021/12/25 15:05:55;;;;;;;174.10;84.35;;;;;;;5.25;100.00;99682.47;6188346;23;20005;-85
2021/12/25 15:08:25;;;;;;;177.02;84.07;;;;;;;5.14;100.00;99685.28;6214685;23;20001;-90
2021/12/25 15:10:54;;;;;;;169.75;83.22;;;;;;;5.17;100.00;99679.75;6213673;23;20009;-86
2021/12/25 15:13:21;;;;;;;174.52;84.40;;;;;;;5.32;100.00;99674.81;6176010;23;20035;-87
2021/12/25 15:15:54;;;;;;;173.40;83.78;;;;;;;5.40;100.00;99673.06;6174434;23;20013;-88
2021/12/25 15:18:22;;;;;;;176.98;83.80;;;;;;;5.28;100.00;99671.66;6199436;23;20060;-87
2021/12/25 15:20:48;;;;;;;179.43;85.32;;;;;;;5.48;100.00;99667.91;6171639;23;20055;-87
2021/12/25 15:23:18;;;;;;;175.40;86.65;;;;;;;5.39;100.00;99667.97;6198557;23;20405;-87
2021/12/25 15:25:44;;;;;;;172.05;86.22;;;;;;;5.69;100.00;99664.97;6170784;23;20073;-86
2021/12/25 15:28:13;;;;;;;165.80;82.63;;;;;;;5.51;100.00;99670.22;6196493;23;20020;-88
2021/12/25 15:30:38;;;;;;;174.82;84.68;;;;;;;5.45;100.00;99672.63;6197275;23;20009;-85
2021/12/25 15:33:09;;;;;;;176.00;87.35;;;;;;;5.34;100.00;99673.69;6197929;23;20013;-88
2021/12/25 15:35:38;;;;;;;175.98;86.80;;;;;;;5.34;100.00;99676.31;6200132;23;20017;-85
2021/12/25 15:38:05;;;;;;;180.77;87.30;;;;;;;5.35;100.00;99669.25;6198179;23;20029;-88
2021/12/25 15:40:34;;;;;;;179.00;87.60;;;;;;;5.25;100.00;99671.94;6170010;23;20017;-88
2021/12/25 15:43:00;;;;;;;177.98;87.30;;;;;;;5.31;100.00;99671.34;6170028;23;20032;-87
2021/12/25 15:45:31;;;;;;;171.57;85.20;;;;;;;5.47;100.00;99681.22;6172132;23;20372;-88
2021/12/25 15:48:01;;;;;;;170.52;84.50;;;;;;;5.40;100.00;99675.69;6196069;23;20013;-87
2021/12/25 15:50:32;;;;;;;178.43;86.57;;;;;;;5.15;100.00;99666.75;6194330;23;20017;-86
2021/12/25 15:53:06;;;;;;;182.45;88.40;;;;;;;5.06;100.00;99678.16;6191719;23;20013;-86
2021/12/25 15:55:33;;;;;;;178.82;85.55;;;;;;;5.25;100.00;99671.94;6164656;23;20032;-87
2021/12/25 15:58:05;;;;;;;171.85;83.93;;;;;;;5.29;100.00;99673.31;6166061;23;20012;-87
2021/12/25 16:00:34;;;;;;;170.43;82.63;;;;;;;5.23;100.00;99671.28;6191845;23;20013;-87
2021/12/25 16:03:01;;;;;;;180.90;85.85;;;;;;;5.08;100.00;99664.88;6189868;23;20449;-86
2021/12/25 16:05:27;;;;;;;174.80;84.10;;;;;;;5.07;100.00;99652.75;6194526;23;20034;-85
2021/12/25 16:07:56;;;;;;;179.80;83.35;;;;;;;5.05;100.00;99663.38;6194106;23;20060;-87
2021/12/25 16:10:23;;;;;;;171.50;81.57;;;;;;;5.13;100.00;99662.66;6194790;23;20089;-88
2021/12/25 16:12:49;;;;;;;168.52;80.30;;;;;;;5.33;100.00;99666.78;6194539;23;20055;-87
2021/12/25 16:15:16;;;;;;;167.38;78.68;;;;;;;5.15;100.00;99679.91;6194998;23;20380;-86
2021/12/25 16:17:42;;;;;;;178.50;80.82;;;;;;;5.14;100.00;99685.28;6193469;23;20059;-88
2021/12/25 16:20:08;;;;;;;166.50;76.47;;;;;;;5.30;100.00;99695.16;6195369;23;20069;-85
2021/12/25 16:22:34;;;;;;;175.13;79.07;;;;;;;5.11;100.00;99696.91;6169028;23;20382;-88
2021/12/25 16:24:59;;;;;;;167.32;79.68;;;;;;;5.24;100.00;99698.38;6195013;23;20005;-88
2021/12/25 16:27:25;;;;;;;168.50;80.25;;;;;;;5.20;100.00;99692.59;6191963;23;20012;-88
2021/12/25 16:29:54;;;;;;;158.30;75.25;;;;;;;5.32;100.00;99693.19;6195465;23;20035;-85
2021/12/25 16:32:22;;;;;;;160.93;76.38;;;;;;;5.18;100.00;99684.03;6193112;23;20023;-85
2021/12/25 16:34:48;;;;;;;151.23;71.78;;;;;;;5.46;100.00;99675.13;6167902;23;20028;-85
2021/12/25 16:37:17;;;;;;;167.65;75.70;;;;;;;5.36;100.00;99674.38;6195884;23;20336;-85
2021/12/25 16:39:43;;;;;;;167.52;77.50;;;;;;;5.41;100.00;99674.72;6191219;23;20037;-87
2021/12/25 16:42:09;;;;;;;156.93;77.38;;;;;;;5.49;100.00;99674.81;6191275;23;20005;-89
2021/12/25 16:44:35;;;;;;;159.30;74.72;;;;;;;5.42;100.00;99678.19;6188483;23;20009;-86
2021/12/25 16:47:01;;;;;;;158.70;75.97;;;;;;;5.34;100.00;99671.03;6187420;23;20012;-85
2021/12/25 16:49:27;;;;;;;152.00;74.78;;;;;;;5.74;100.00;99667.97;6187489;23;20009;-86
2021/12/25 16:51:55;;;;;;;155.73;75.78;;;;;;;5.58;100.00;99668.66;6189099;23;20009;-87
2021/12/25 16:54:24;;;;;;;153.25;74.30;;;;;;;5.49;100.00;99666.94;6186996;23;20013;-86
2021/12/25 16:56:50;;;;;;;158.80;72.82;;;;;;;5.58;100.00;99673.91;6187887;23;20057;-87
2021/12/25 16:59:17;;;;;;;151.93;73.43;;;;;;;5.70;100.00;99679.78;6190781;23;20020;-86
2021/12/25 17:01:44;;;;;;;146.05;71.22;;;;;;;5.50;100.00;99681.72;6192204;23;20013;-86
2021/12/25 17:04:10;;;;;;;155.93;73.90;;;;;;;5.43;100.00;99688.56;6193367;23;20028;-85
2021/12/25 17:06:36;;;;;;;155.90;74.43;;;;;;;5.46;100.00;99688.25;6194676;23;20017;-85
2021/12/25 17:09:03;;;;;;;154.77;75.80;;;;;;;5.46;100.00;99685.63;6208206;23;19997;-85
2021/12/25 17:11:29;;;;;;;161.90;75.35;;;;;;;5.38;100.00;99688.19;6211954;23;19997;-86
2021/12/25 17:13:56;;;;;;;161.85;77.38;;;;;;;5.31;100.00;99684.47;6210829;23;20048;-89
2021/12/25 17:16:24;;;;;;;155.82;74.40;;;;;;;5.25;100.00;99671.94;6209966;23;20016;-88
2021/12/25 17:18:49;;;;;;;158.02;74.05;;;;;;;5.28;100.00;99682.16;6190544;23;20080;-88
2021/12/25 17:21:15;;;;;;;150.25;70.68;;;;;;;5.48;100.00;99686.31;6188794;23;20392;-88
2021/12/25 17:23:42;;;;;;;145.27;70.72;;;;;;;5.35;100.00;99696.34;6190549;23;20511;-86
2021/12/25 17:26:07;;;;;;;140.05;68.35;;;;;;;5.17;100.00;99706.03;6192029;23;20017;-87
2021/12/25 17:28:33;;;;;;;134.40;65.93;;;;;;;5.31;100.00;99702.03;6164493;23;20067;-87
2021/12/25 17:30:59;;;;;;;135.77;64.55;;;;;;;5.19;100.00;99711.94;6189911;23;20032;-87
2021/12/25 17:33:27;;;;;;;130.52;63.45;;;;;;;5.02;100.00;99695.19;6188397;23;20520;-86
2021/12/25 17:35:56;;;;;;;130.18;61.40;;;;;;;5.15;100.00;99692.19;6192026;23;20071;-88
2021/12/25 17:38:27;;;;;;;128.05;61.03;;;;;;;5.08;100.00;99685.88;6191933;23;20044;-87
2021/12/25 17:40:53;;;;;;;127.97;60.42;;;;;;;5.37;100.00;99691.75;6190043;23;20032;-86
2021/12/25 17:43:21;;;;;;;116.93;58.95;;;;;;;5.33;100.00;99690.44;6189091;23;20012;-87
2021/12/25 17:45:49;;;;;;;115.18;59.10;;;;;;;5.26;100.00;99684.13;6191460;23;20035;-87
2021/12/25 17:48:15;;;;;;;117.32;59.10;;;;;;;5.39;100.00;99692.47;6191889;23;20093;-87
2021/12/25 17:50:41;;;;;;;114.72;57.17;;;;;;;5.48;100.00;99696.81;6191106;23;20065;-86
2021/12/25 17:53:08;;;;;;;111.07;56.70;;;;;;;5.25;100.00;99708.72;6193330;23;20013;-88
2021/12/25 17:55:35;;;;;;;113.68;56.25;;;;;;;5.18;100.00;99702.41;6189641;23;20013;-91
2021/12/25 17:58:02;;;;;;;116.03;57.08;;;;;;;5.12;100.00;99709.09;6194103;23;20001;-87
2021/12/25 18:00:32;;;;;;;111.22;56.45;;;;;;;5.08;100.00;99717.41;6194350;23;20019;-88
2021/12/25 18:02:58;;;;;;;113.28;55.60;;;;;;;5.01;100.00;99709.28;6194311;23;20504;-86
2021/12/25 18:05:24;;;;;;;107.85;54.35;;;;;;;5.04;100.00;99710.78;6195713;23;20052;-86
2021/12/25 18:07:49;;;;;;;105.22;52.05;;;;;;;5.13;100.00;99704.66;6167529;23;20040;-88
2021/12/25 18:10:18;;;;;;;106.15;52.38;;;;;;;5.14;100.00;99706.28;6165876;23;20012;-88